createdAt,value
2019-01-06T00:00:23.820Z,6.39
2019-01-06T00:05:52.499Z,6.30
2019-01-06T00:11:33.325Z,6.27
2019-01-06T00:16:57.576Z,6.22
2019-01-06T00:22:20.542Z,6.13
2019-01-06T00:27:48.291Z,6.10
2019-01-06T00:33:11.391Z,6.10
2019-01-06T00:38:34.263Z,6.04
2019-01-06T00:43:55.246Z,5.98
2019-01-06T00:49:18.132Z,5.98
2019-01-06T00:54:41.080Z,5.96
2019-01-06T01:00:06.156Z,5.94
2019-01-06T01:05:29.854Z,5.94
2019-01-06T01:10:53.079Z,5.95
2019-01-06T01:16:17.074Z,5.89
2019-01-06T01:21:39.878Z,5.88
2019-01-06T01:27:03.982Z,5.87
2019-01-06T01:32:33.835Z,5.85
2019-01-06T01:37:56.258Z,5.80
2019-01-06T01:43:38.557Z,5.85
2019-01-06T01:49:05.878Z,5.73
2019-01-06T01:54:36.052Z,5.63
2019-01-06T02:00:12.302Z,5.56
2019-01-06T02:05:51.710Z,5.53
2019-01-06T02:11:12.799Z,5.45
2019-01-06T02:16:42.694Z,5.35
2019-01-06T02:22:19.146Z,5.35
2019-01-06T02:27:42.109Z,5.37
2019-01-06T02:33:21.292Z,5.41
2019-01-06T02:38:43.096Z,5.45
2019-01-06T02:44:05.979Z,5.45
2019-01-06T02:49:28.760Z,5.49
2019-01-06T02:55:07.750Z,5.55
2019-01-06T03:06:04.996Z,5.47
2019-01-06T03:11:27.780Z,5.45
2019-01-06T03:16:51.696Z,5.44
2019-01-06T03:22:14.414Z,5.39
2019-01-06T03:27:50.556Z,5.41
2019-01-06T03:33:17.896Z,5.39
2019-01-06T03:38:44.655Z,5.37
2019-01-06T03:44:07.521Z,5.35
2019-01-06T03:49:34.570Z,5.32
2019-01-06T03:54:58.510Z,5.27
2019-01-06T04:00:31.832Z,5.21
2019-01-06T04:05:54.922Z,5.09
2019-01-06T04:11:17.532Z,5.00
2019-01-06T04:16:40.356Z,5.00
2019-01-06T04:22:20.020Z,5.01
2019-01-06T04:27:53.269Z,4.98
2019-01-06T04:33:26.239Z,4.91
2019-01-06T04:38:53.562Z,4.93
2019-01-06T04:44:17.560Z,4.89
2019-01-06T04:49:51.638Z,4.92
2019-01-06T04:55:11.056Z,4.84
2019-01-06T05:00:50.666Z,4.80
2019-01-06T05:06:20.496Z,4.74
2019-01-06T05:11:51.494Z,4.71
2019-01-06T05:17:27.880Z,4.72
2019-01-06T05:22:53.042Z,4.74
2019-01-06T05:28:15.909Z,4.71
2019-01-06T05:33:45.860Z,4.70
2019-01-06T05:39:08.940Z,4.60
2019-01-06T05:44:32.883Z,4.59
2019-01-06T05:49:52.101Z,4.64
2019-01-06T05:55:25.302Z,4.62
2019-01-06T06:00:49.274Z,4.57
2019-01-06T06:06:04.652Z,4.56
2019-01-06T06:11:27.326Z,4.57
2019-01-06T06:17:00.340Z,4.52
2019-01-06T06:22:19.568Z,4.46
2019-01-06T06:27:49.616Z,4.45
2019-01-06T06:33:12.502Z,4.51
2019-01-06T06:38:45.542Z,4.49
2019-01-06T06:44:32.136Z,4.45
2019-01-06T06:50:16.505Z,4.43
2019-01-06T06:55:48.777Z,4.42
2019-01-06T07:01:29.578Z,4.41
2019-01-06T07:07:12.204Z,4.48
2019-01-06T07:12:34.798Z,4.48
2019-01-06T07:18:11.052Z,4.44
2019-01-06T07:23:49.522Z,4.47
2019-01-06T07:29:13.454Z,4.42
2019-01-06T07:34:40.730Z,4.41
2019-01-06T07:40:14.383Z,4.41
2019-01-06T07:45:59.190Z,4.44
2019-01-06T07:51:21.987Z,4.46
2019-01-06T07:56:47.548Z,4.46
2019-01-06T08:02:15.120Z,4.48
2019-01-06T08:07:47.060Z,4.51
2019-01-06T08:13:09.784Z,4.58
2019-01-06T08:18:49.170Z,4.60
2019-01-06T08:24:12.307Z,4.64
2019-01-06T08:29:42.412Z,4.62
2019-01-06T08:35:05.148Z,4.64
2019-01-06T08:40:33.094Z,4.62
2019-01-06T08:45:56.022Z,4.66
2019-01-06T08:51:21.058Z,4.69
2019-01-06T08:56:49.874Z,4.75
2019-01-06T09:02:17.890Z,4.84
2019-01-06T09:07:50.278Z,4.82
2019-01-06T09:13:17.980Z,4.85
2019-01-06T09:18:41.146Z,5.01
2019-01-06T09:24:17.436Z,5.03
2019-01-06T09:29:56.821Z,5.13
2019-01-06T09:35:20.165Z,5.24
2019-01-06T09:40:43.356Z,5.44
2019-01-06T09:46:19.776Z,5.48
2019-01-06T09:51:42.804Z,5.45
2019-01-06T09:57:05.897Z,5.51
2019-01-06T10:02:32.793Z,5.63
2019-01-06T10:07:57.233Z,5.63
2019-01-06T10:13:33.281Z,5.63
2019-01-06T10:19:06.304Z,5.63
2019-01-06T10:24:30.539Z,5.64
2019-01-06T10:29:57.678Z,5.69
2019-01-06T10:35:31.121Z,5.72
2019-01-06T10:41:10.578Z,5.81
2019-01-06T10:46:35.534Z,5.97
2019-01-06T10:52:08.846Z,5.93
2019-01-06T10:57:31.920Z,5.84
2019-01-06T11:03:01.513Z,5.74
2019-01-06T11:08:28.644Z,5.63
2019-01-06T11:13:51.354Z,5.64
2019-01-06T11:19:33.663Z,5.68
2019-01-06T11:24:55.524Z,5.68
2019-01-06T11:30:18.656Z,5.77
2019-01-06T11:35:57.949Z,5.98
2019-01-06T11:41:32.187Z,6.12
2019-01-06T11:47:04.276Z,6.18
2019-01-06T11:52:38.968Z,6.20
2019-01-06T11:58:02.139Z,6.08
2019-01-06T12:03:29.075Z,5.96
2019-01-06T12:08:55.557Z,6.02
2019-01-06T12:14:19.585Z,6.01
2019-01-06T12:19:58.730Z,6.13
2019-01-06T12:25:25.706Z,6.07
2019-01-06T12:30:44.050Z,5.88
2019-01-06T12:36:16.715Z,5.91
2019-01-06T12:41:40.863Z,5.93
2019-01-06T12:47:03.713Z,5.89
2019-01-06T12:52:27.916Z,5.87
2019-01-06T12:57:51.971Z,5.93
2019-01-06T13:03:14.984Z,5.92
2019-01-06T13:08:38.022Z,6.00
2019-01-06T13:13:57.368Z,5.97
2019-01-06T13:19:20.595Z,5.95
2019-01-06T13:24:43.747Z,5.91
2019-01-06T13:30:10.558Z,5.92
2019-01-06T13:35:47.385Z,5.90
2019-01-06T13:41:12.564Z,5.85
2019-01-06T13:46:32.439Z,5.83
2019-01-06T13:51:56.624Z,5.86
2019-01-06T13:57:20.396Z,5.76
2019-01-06T14:02:46.701Z,5.76
2019-01-06T14:08:10.324Z,5.76
2019-01-06T14:13:34.562Z,5.70
2019-01-06T14:18:57.761Z,5.66
2019-01-06T14:24:31.606Z,5.65
2019-01-06T14:30:01.918Z,5.57
2019-01-06T14:35:24.894Z,5.62
2019-01-06T14:40:52.159Z,5.69
2019-01-06T14:46:30.945Z,5.63
2019-01-06T14:51:54.225Z,5.64
2019-01-06T14:57:16.952Z,5.60
2019-01-06T15:02:41.249Z,5.65
2019-01-06T15:08:03.982Z,5.62
2019-01-06T15:13:34.202Z,5.59
2019-01-06T15:18:56.911Z,5.53
2019-01-06T15:24:19.950Z,5.53
2019-01-06T15:30:00.640Z,5.48
2019-01-06T15:35:27.990Z,5.49
2019-01-06T15:40:54.948Z,5.39
2019-01-06T15:46:18.274Z,5.40
2019-01-06T15:51:40.977Z,5.39
2019-01-06T15:57:14.338Z,5.41
2019-01-06T16:02:37.184Z,5.41
2019-01-06T16:08:09.801Z,5.45
2019-01-06T16:13:39.957Z,5.44
2019-01-06T16:19:14.195Z,5.46
2019-01-06T16:24:44.330Z,5.39
2019-01-06T16:30:02.366Z,5.49
2019-01-06T16:35:36.004Z,5.42
2019-01-06T16:41:06.439Z,5.42
2019-01-06T16:46:29.547Z,5.42
2019-01-06T16:52:00.127Z,5.47
2019-01-06T16:57:24.689Z,5.42
2019-01-06T17:02:44.483Z,5.35
2019-01-06T17:08:07.862Z,5.43
2019-01-06T17:13:30.827Z,5.40
2019-01-06T17:19:00.753Z,5.43
2019-01-06T17:24:13.915Z,5.47
2019-01-06T17:29:40.875Z,5.31
2019-01-06T17:35:01.604Z,5.37
2019-01-06T17:40:42.223Z,5.35
2019-01-06T17:46:16.405Z,5.38
2019-01-06T17:51:45.033Z,5.35
2019-01-06T17:57:15.399Z,5.30
2019-01-06T18:02:38.088Z,5.31
2019-01-06T18:08:12.827Z,5.30
2019-01-06T18:13:49.197Z,5.34
2019-01-06T18:19:16.390Z,5.37
2019-01-06T18:24:43.481Z,5.35
2019-01-06T18:30:06.182Z,5.34
2019-01-06T18:35:29.302Z,5.27
2019-01-06T18:40:56.564Z,5.26
2019-01-06T18:46:32.742Z,5.22
2019-01-06T18:51:55.417Z,5.23
2019-01-06T18:57:19.651Z,5.29
2019-01-06T19:02:42.873Z,5.30
2019-01-06T19:08:13.157Z,5.31
2019-01-06T19:13:42.369Z,5.34
2019-01-06T19:19:24.953Z,5.39
2019-01-06T19:24:52.775Z,5.32
2019-01-06T19:30:23.566Z,5.34
2019-01-06T19:35:46.978Z,5.33
2019-01-06T19:47:26.949Z,5.21
2019-01-06T19:52:50.756Z,5.21
2019-01-06T19:58:14.275Z,5.18
2019-01-06T20:03:38.692Z,5.17
2019-01-06T20:09:01.469Z,5.16
2019-01-06T20:14:37.508Z,5.15
2019-01-06T20:20:19.935Z,5.07
2019-01-06T20:25:53.476Z,5.08
2019-01-06T20:31:15.128Z,5.10
2019-01-06T20:36:38.021Z,5.13
2019-01-06T20:41:58.825Z,5.09
2019-01-06T20:47:22.608Z,5.08
2019-01-06T20:52:45.744Z,5.08
2019-01-06T20:58:08.747Z,5.11
2019-01-06T21:03:29.469Z,5.13
2019-01-06T21:08:52.129Z,5.08
2019-01-06T21:14:28.518Z,5.10
2019-01-06T21:19:55.675Z,5.14
2019-01-06T21:25:31.984Z,5.16
2019-01-06T21:31:08.012Z,5.17
2019-01-06T21:36:47.549Z,5.13
2019-01-06T21:42:10.383Z,5.11
2019-01-06T21:47:33.652Z,5.13
2019-01-06T21:52:56.657Z,5.12
2019-01-06T21:58:27.176Z,5.12
2019-01-06T22:03:49.854Z,5.11
2019-01-06T22:09:12.648Z,5.09
2019-01-06T22:14:45.974Z,5.12
2019-01-06T22:20:13.602Z,5.08
2019-01-06T22:25:41.572Z,5.09
2019-01-06T22:31:25.028Z,5.03
2019-01-06T22:36:42.417Z,5.00
2019-01-06T22:42:05.157Z,4.95
2019-01-06T22:47:28.287Z,4.99
2019-01-06T22:52:55.391Z,4.94
2019-01-06T22:58:35.266Z,4.91
2019-01-06T23:03:59.624Z,4.92
2019-01-06T23:09:24.031Z,4.84
2019-01-06T23:14:51.208Z,4.81
2019-01-06T23:20:17.662Z,4.86
2019-01-06T23:25:40.395Z,4.81
2019-01-06T23:31:03.303Z,4.83
2019-01-06T23:36:39.775Z,4.83
2019-01-06T23:42:22.265Z,4.87
2019-01-06T23:48:01.705Z,4.88
2019-01-06T23:53:43.929Z,4.87
2019-01-06T23:59:16.983Z,4.89
